createdAt,value
2019-04-04T00:01:22.652Z,96109.61
2019-04-04T00:03:53.070Z,96118.09
2019-04-04T00:06:26.689Z,96120.38
2019-04-04T00:08:54.768Z,96112.31
2019-04-04T00:11:24.161Z,96109.95
2019-04-04T00:13:54.771Z,96104.75
2019-04-04T00:16:24.146Z,96111.20
2019-04-04T00:18:54.467Z,96098.55
2019-04-04T00:21:24.811Z,96102.72
2019-04-04T00:23:53.340Z,96107.56
2019-04-04T00:26:22.689Z,96098.49
2019-04-04T00:28:52.091Z,96102.47
2019-04-04T00:31:20.960Z,96097.45
2019-04-04T00:33:51.340Z,96098.22
2019-04-04T00:36:20.660Z,96097.64
2019-04-04T00:38:51.325Z,96098.45
2019-04-04T00:41:20.637Z,96105.55
2019-04-04T00:43:51.791Z,96096.38
2019-04-04T00:46:24.082Z,96096.91
2019-04-04T00:48:54.109Z,96088.05
2019-04-04T00:51:26.534Z,96082.22
2019-04-04T00:53:54.993Z,96091.33
2019-04-04T00:56:25.309Z,96085.83
2019-04-04T00:58:55.777Z,96083.61
2019-04-04T01:01:27.190Z,96087.96
2019-04-04T01:04:00.258Z,96092.04
2019-04-04T01:06:30.123Z,96090.25
2019-04-04T01:09:00.524Z,96094.64
2019-04-04T01:11:32.430Z,96086.25
2019-04-04T01:14:02.763Z,96077.13
2019-04-04T01:16:34.087Z,96068.97
2019-04-04T01:19:02.947Z,96073.19
2019-04-04T01:21:33.011Z,96077.50
2019-04-04T01:24:01.502Z,96080.67
2019-04-04T01:26:34.856Z,96077.83
2019-04-04T01:29:05.869Z,96084.02
2019-04-04T01:31:36.365Z,96075.83
2019-04-04T01:34:05.745Z,96072.75
2019-04-04T01:36:35.129Z,96072.86
2019-04-04T01:39:06.766Z,96065.63
2019-04-04T01:41:39.451Z,96063.05
2019-04-04T01:44:11.824Z,96065.80
2019-04-04T01:46:42.202Z,96062.00
2019-04-04T01:49:14.430Z,96072.17
2019-04-04T01:51:45.582Z,96061.66
2019-04-04T01:54:16.999Z,96048.31
2019-04-04T01:56:47.399Z,96054.28
2019-04-04T01:59:19.306Z,96046.00
2019-04-04T02:01:48.691Z,96034.55
2019-04-04T02:04:19.060Z,96031.80
2019-04-04T02:06:49.465Z,96034.38
2019-04-04T02:09:19.864Z,96032.70
2019-04-04T02:11:50.246Z,96026.36
2019-04-04T02:14:19.720Z,96020.27
2019-04-04T02:16:51.610Z,96020.84
2019-04-04T02:19:22.933Z,96016.03
2019-04-04T02:21:53.362Z,96010.23
2019-04-04T02:24:24.218Z,96010.08
2019-04-04T02:26:53.546Z,96002.64
2019-04-04T02:29:23.948Z,95999.29
2019-04-04T02:31:57.681Z,95999.29
2019-04-04T02:34:28.099Z,95998.30
2019-04-04T02:36:58.627Z,95991.37
2019-04-04T02:39:29.003Z,95988.16
2019-04-04T02:41:59.348Z,95995.02
2019-04-04T02:44:32.269Z,95986.16
2019-04-04T02:47:01.804Z,95976.53
2019-04-04T02:49:32.215Z,95973.92
2019-04-04T02:52:01.571Z,95985.03
2019-04-04T02:54:31.970Z,95976.90
2019-04-04T02:57:02.859Z,95979.60
2019-04-04T02:59:33.421Z,95984.05
2019-04-04T03:02:05.769Z,95964.00
2019-04-04T03:04:34.162Z,95963.27
2019-04-04T03:07:03.709Z,95963.62
2019-04-04T03:09:33.193Z,95975.39
2019-04-04T03:12:03.575Z,95977.99
2019-04-04T03:14:37.346Z,95969.24
2019-04-04T03:17:06.777Z,95961.50
2019-04-04T03:19:43.057Z,95965.38
2019-04-04T03:22:10.663Z,95958.52
2019-04-04T03:24:44.743Z,95950.38
2019-04-04T03:27:13.081Z,95941.45
2019-04-04T03:29:42.674Z,95937.84
2019-04-04T03:32:14.400Z,95940.45
2019-04-04T03:34:49.765Z,95939.45
2019-04-04T03:37:16.560Z,95939.98
2019-04-04T03:39:47.005Z,95938.27
2019-04-04T03:42:17.419Z,95933.11
2019-04-04T03:44:52.887Z,95931.13
2019-04-04T03:47:19.950Z,95927.02
2019-04-04T03:49:50.288Z,95925.16
2019-04-04T03:52:19.662Z,95913.45
2019-04-04T03:54:49.070Z,95912.25
2019-04-04T03:57:19.654Z,95913.72
2019-04-04T03:59:50.082Z,95899.55
2019-04-04T04:02:19.784Z,95896.23
2019-04-04T04:04:49.243Z,95889.62
2019-04-04T04:07:18.766Z,95900.34
2019-04-04T04:09:48.164Z,95882.00
2019-04-04T04:12:18.520Z,95883.37
2019-04-04T04:14:48.028Z,95878.98
2019-04-04T04:17:18.419Z,95874.77
2019-04-04T04:19:47.795Z,95873.49
2019-04-04T04:22:19.275Z,95871.98
2019-04-04T04:24:48.884Z,95866.81
2019-04-04T04:27:21.266Z,95864.07
2019-04-04T04:29:51.712Z,95862.28
2019-04-04T04:32:22.792Z,95868.28
2019-04-04T04:34:52.309Z,95868.39
2019-04-04T04:37:21.733Z,95873.55
2019-04-04T04:39:52.088Z,95871.17
2019-04-04T04:42:26.322Z,95862.89
2019-04-04T04:44:53.795Z,95857.45
2019-04-04T04:47:25.653Z,95865.55
2019-04-04T04:49:55.601Z,95856.14
2019-04-04T04:52:26.123Z,95852.63
2019-04-04T04:54:55.688Z,95845.05
2019-04-04T04:57:29.736Z,95840.24
2019-04-04T04:59:58.103Z,95835.44
2019-04-04T05:02:28.510Z,95828.11
2019-04-04T05:05:00.043Z,95823.94
2019-04-04T05:07:30.588Z,95828.45
2019-04-04T05:09:59.875Z,95819.88
2019-04-04T05:12:29.238Z,95818.50
2019-04-04T05:15:01.421Z,95816.50
2019-04-04T05:17:31.471Z,95828.12
2019-04-04T05:20:01.806Z,95832.92
2019-04-04T05:22:32.309Z,95824.41
2019-04-04T05:25:08.442Z,95814.90
2019-04-04T05:27:35.097Z,95816.17
2019-04-04T05:30:08.429Z,95810.82
2019-04-04T05:32:39.219Z,95796.18
2019-04-04T05:35:09.046Z,95790.09
2019-04-04T05:37:41.596Z,95790.66
2019-04-04T05:40:15.344Z,95785.81
2019-04-04T05:42:47.346Z,95766.42
2019-04-04T05:45:16.927Z,95771.91
2019-04-04T05:47:47.397Z,95774.86
2019-04-04T05:50:16.923Z,95792.13
2019-04-04T05:52:47.281Z,95793.27
2019-04-04T05:55:16.645Z,95779.96
2019-04-04T05:57:47.034Z,95766.74
2019-04-04T06:00:18.089Z,95759.42
2019-04-04T06:02:48.499Z,95763.55
2019-04-04T06:05:20.757Z,95766.44
2019-04-04T06:07:53.150Z,95765.70
2019-04-04T06:10:23.553Z,95754.95
2019-04-04T06:12:57.308Z,95752.55
2019-04-04T06:15:27.665Z,95737.82
2019-04-04T06:17:58.107Z,95730.66
2019-04-04T06:20:28.432Z,95717.75
2019-04-04T06:22:58.821Z,95719.74
2019-04-04T06:25:28.309Z,95726.77
2019-04-04T06:27:59.215Z,95704.91
2019-04-04T06:30:28.618Z,95700.16
2019-04-04T06:32:59.088Z,95710.66
2019-04-04T06:35:29.489Z,95701.31
2019-04-04T06:38:00.115Z,95697.19
2019-04-04T06:40:30.238Z,95688.47
2019-04-04T06:43:03.539Z,95691.93
2019-04-04T06:45:31.539Z,95689.90
2019-04-04T06:48:01.009Z,95664.60
2019-04-04T06:50:30.483Z,95653.17
2019-04-04T06:53:00.865Z,95627.26
2019-04-04T06:55:34.231Z,95585.28
2019-04-04T06:58:08.336Z,95571.28
2019-04-04T07:00:36.463Z,95571.28
2019-04-04T07:03:09.904Z,95561.50
2019-04-04T07:05:39.387Z,95541.34
2019-04-04T07:08:15.188Z,95529.33
2019-04-04T07:10:57.167Z,95515.22
2019-04-04T07:13:22.133Z,95473.65
2019-04-04T07:16:05.390Z,95450.05
2019-04-04T07:18:22.161Z,95417.98
2019-04-04T07:20:50.887Z,95587.56
2019-04-04T07:23:20.363Z,95618.72
2019-04-04T07:25:49.762Z,95609.14
2019-04-04T07:28:20.127Z,95599.86
2019-04-04T07:30:49.585Z,95604.98
2019-04-04T07:33:21.460Z,95609.84
2019-04-04T07:35:52.114Z,95618.61
2019-04-04T07:38:22.474Z,95605.81
2019-04-04T07:40:51.880Z,95613.23
2019-04-04T07:43:22.159Z,95611.08
2019-04-04T07:45:55.186Z,95602.64
2019-04-04T07:48:24.726Z,95600.79
2019-04-04T07:50:58.242Z,95594.64
2019-04-04T07:53:28.147Z,95592.78
2019-04-04T07:55:58.760Z,95587.52
2019-04-04T07:58:30.632Z,95593.55
2019-04-04T08:01:01.007Z,95567.90
2019-04-04T08:03:30.522Z,95580.04
2019-04-04T08:06:00.904Z,95585.83
2019-04-04T08:08:30.392Z,95585.98
2019-04-04T08:10:59.792Z,95594.09
2019-04-04T08:13:30.135Z,95592.22
2019-04-04T08:16:00.543Z,95588.44
2019-04-04T08:18:30.953Z,95584.17
2019-04-04T08:21:00.348Z,95575.28
2019-04-04T08:23:30.453Z,95571.29
2019-04-04T08:26:00.805Z,95561.00
2019-04-04T08:28:31.322Z,95571.26
2019-04-04T08:31:00.727Z,95560.81
2019-04-04T08:33:31.185Z,95572.09
2019-04-04T08:36:06.127Z,95585.94
2019-04-04T08:38:33.263Z,95563.58
2019-04-04T08:41:02.671Z,95560.39
2019-04-04T08:43:33.017Z,95581.50
2019-04-04T08:46:03.396Z,95585.59
2019-04-04T08:48:32.829Z,95566.91
2019-04-04T08:51:03.315Z,95559.09
2019-04-04T08:53:39.871Z,95562.77
2019-04-04T08:56:05.265Z,95563.65
2019-04-04T08:58:34.669Z,95556.47
2019-04-04T09:01:05.131Z,95550.74
2019-04-04T09:03:37.110Z,95550.86
2019-04-04T09:06:10.851Z,95557.16
2019-04-04T09:08:41.167Z,95560.92
2019-04-04T09:11:11.551Z,95548.13
2019-04-04T09:13:42.998Z,95552.30
2019-04-04T09:16:14.985Z,95552.32
2019-04-04T09:18:45.460Z,95562.26
2019-04-04T09:21:16.531Z,95528.72
2019-04-04T09:23:46.953Z,95533.72
2019-04-04T09:26:16.700Z,95552.48
2019-04-04T09:28:46.070Z,95532.87
2019-04-04T09:31:15.463Z,95555.02
2019-04-04T09:33:45.950Z,95540.86
2019-04-04T09:36:16.892Z,95538.16
2019-04-04T09:38:47.397Z,95527.45
2019-04-04T09:41:19.138Z,95537.09
2019-04-04T09:43:49.537Z,95516.54
2019-04-04T09:46:18.954Z,95535.80
2019-04-04T09:48:48.373Z,95534.41
2019-04-04T09:51:20.758Z,95509.16
2019-04-04T09:53:53.282Z,95515.52
2019-04-04T09:56:21.295Z,95516.25
2019-04-04T09:58:54.795Z,95526.11
2019-04-04T10:01:22.840Z,95526.05
2019-04-04T10:03:52.261Z,95534.98
2019-04-04T10:06:22.611Z,95538.53
2019-04-04T10:08:52.140Z,95536.77
2019-04-04T10:11:23.177Z,95512.59
2019-04-04T10:13:52.652Z,95555.13
2019-04-04T10:16:22.960Z,95527.05
2019-04-04T10:18:53.871Z,95550.92
2019-04-04T10:21:23.219Z,95518.33
2019-04-04T10:23:54.074Z,95536.03
2019-04-04T10:26:23.447Z,95525.86
2019-04-04T10:28:52.292Z,95548.96
2019-04-04T10:31:24.842Z,95541.11
2019-04-04T10:33:55.261Z,95541.14
2019-04-04T10:36:25.666Z,95555.68
2019-04-04T10:38:55.162Z,95551.02
2019-04-04T10:41:24.646Z,95562.72
2019-04-04T10:43:56.973Z,95549.48
2019-04-04T10:46:26.395Z,95532.84
2019-04-04T10:48:56.741Z,95562.63
2019-04-04T10:51:28.788Z,95546.50
2019-04-04T10:53:59.211Z,95558.25
2019-04-04T10:56:29.636Z,95539.21
2019-04-04T10:59:00.045Z,95556.06
2019-04-04T11:01:30.438Z,95552.88
2019-04-04T11:03:59.925Z,95538.03
2019-04-04T11:06:30.314Z,95520.38
2019-04-04T11:09:02.699Z,95527.16
2019-04-04T11:11:32.326Z,95521.40
2019-04-04T11:14:01.678Z,95520.56
2019-04-04T11:16:31.022Z,95520.56
2019-04-04T11:19:01.398Z,95510.94
2019-04-04T11:21:32.012Z,95525.67
2019-04-04T11:24:00.905Z,95522.03
2019-04-04T11:26:31.471Z,95536.96
2019-04-04T11:29:01.994Z,95522.05
2019-04-04T11:31:31.389Z,95513.31
2019-04-04T11:34:01.743Z,95507.27
2019-04-04T11:36:34.133Z,95523.11
2019-04-04T11:39:06.668Z,95508.78
2019-04-04T11:41:36.100Z,95486.39
2019-04-04T11:44:06.602Z,95525.47
2019-04-04T11:46:38.189Z,95503.50
2019-04-04T11:49:08.573Z,95513.93
2019-04-04T11:51:37.939Z,95508.73
2019-04-04T11:54:07.343Z,95529.08
2019-04-04T11:56:36.657Z,95482.45
2019-04-04T11:59:08.168Z,95482.45
2019-04-04T12:01:38.967Z,95486.39
2019-04-04T12:04:08.450Z,95501.80
2019-04-04T12:06:36.930Z,95501.80
2019-04-04T12:09:08.303Z,95492.14
2019-04-04T12:11:37.630Z,95490.91
2019-04-04T12:14:07.091Z,95495.27
2019-04-04T12:16:38.159Z,95487.63
2019-04-04T12:19:07.517Z,95482.32
2019-04-04T12:21:36.848Z,95493.25
2019-04-04T12:24:07.310Z,95483.27
2019-04-04T12:26:37.680Z,95485.42
2019-04-04T12:29:08.022Z,95485.09
2019-04-04T12:31:38.667Z,95482.97
2019-04-04T12:34:08.077Z,95483.25
2019-04-04T12:36:40.076Z,95483.88
2019-04-04T12:39:10.615Z,95478.10
2019-04-04T12:41:40.019Z,95477.66
2019-04-04T12:44:09.501Z,95483.28
2019-04-04T12:46:37.983Z,95486.78
2019-04-04T12:49:07.480Z,95485.75
2019-04-04T12:51:36.314Z,95471.92
2019-04-04T12:54:05.859Z,95480.34
2019-04-04T12:56:36.209Z,95472.70
2019-04-04T12:59:05.726Z,95478.91
2019-04-04T13:01:36.120Z,95479.22
2019-04-04T13:04:06.446Z,95487.17
2019-04-04T13:06:36.753Z,95486.07
2019-04-04T13:09:10.197Z,95487.95
2019-04-04T13:11:40.568Z,95488.59
2019-04-04T13:14:10.076Z,95484.55
2019-04-04T13:16:40.468Z,95489.81
2019-04-04T13:19:09.269Z,95486.53
2019-04-04T13:21:39.678Z,95487.78
2019-04-04T13:24:09.187Z,95486.98
2019-04-04T13:26:39.600Z,95480.00
2019-04-04T13:29:11.438Z,95485.59
2019-04-04T13:31:42.239Z,95484.03
2019-04-04T13:34:11.602Z,95487.61
2019-04-04T13:36:42.577Z,95482.14
2019-04-04T13:39:12.141Z,95482.61
2019-04-04T13:41:41.676Z,95482.45
2019-04-04T13:44:11.072Z,95472.94
2019-04-04T13:46:39.944Z,95475.32
2019-04-04T13:49:11.663Z,95477.64
2019-04-04T13:51:42.140Z,95486.04
2019-04-04T13:54:12.464Z,95480.68
2019-04-04T13:56:44.429Z,95478.63
2019-04-04T13:59:16.372Z,95486.05
2019-04-04T14:01:47.532Z,95486.15
2019-04-04T14:04:20.287Z,95486.70
2019-04-04T14:06:49.789Z,95497.11
2019-04-04T14:09:19.170Z,95489.37
2019-04-04T14:11:49.561Z,95485.23
2019-04-04T14:14:19.922Z,95492.14
2019-04-04T14:16:52.944Z,95491.13
2019-04-04T14:19:23.957Z,95490.47
2019-04-04T14:21:54.529Z,95485.39
2019-04-04T14:24:24.946Z,95489.32
2019-04-04T14:26:54.353Z,95500.20
2019-04-04T14:29:27.731Z,95502.09
2019-04-04T14:31:57.424Z,95508.31
2019-04-04T14:34:26.873Z,95513.33
2019-04-04T14:36:56.269Z,95525.00
2019-04-04T14:39:26.649Z,95527.70
2019-04-04T14:41:57.041Z,95533.39
2019-04-04T14:44:28.022Z,95536.63
2019-04-04T14:46:58.645Z,95546.88
2019-04-04T14:49:27.111Z,95544.44
2019-04-04T14:51:56.588Z,95552.61
2019-04-04T14:54:25.095Z,95558.61
2019-04-04T14:56:53.576Z,95558.61
2019-04-04T14:59:24.045Z,95570.64
2019-04-04T15:01:54.559Z,95572.80
2019-04-04T15:04:25.580Z,95569.53
2019-04-04T15:06:55.980Z,95580.98
2019-04-04T15:09:26.549Z,95579.02
2019-04-04T15:11:55.978Z,95585.70
2019-04-04T15:14:27.959Z,95581.78
2019-04-04T15:16:58.387Z,95585.03
2019-04-04T15:19:30.163Z,95587.63
2019-04-04T15:21:59.678Z,95594.83
2019-04-04T15:24:30.175Z,95604.80
2019-04-04T15:27:02.567Z,95610.59
2019-04-04T15:29:32.089Z,95619.88
2019-04-04T15:32:02.614Z,95623.86
2019-04-04T15:34:35.037Z,95631.36
2019-04-04T15:37:04.416Z,95638.80
2019-04-04T15:39:32.926Z,95640.30
2019-04-04T15:42:03.643Z,95644.14
2019-04-04T15:44:33.051Z,95659.27
2019-04-04T15:47:02.480Z,95672.52
2019-04-04T15:49:32.847Z,95684.45
2019-04-04T15:52:02.357Z,95693.91
2019-04-04T15:54:32.858Z,95707.71
2019-04-04T15:57:02.226Z,95718.75
2019-04-04T15:59:34.601Z,95723.97
2019-04-04T16:02:07.094Z,95737.44
2019-04-04T16:04:37.717Z,95734.79
2019-04-04T16:07:08.464Z,95737.49
2019-04-04T16:09:37.949Z,95754.09
2019-04-04T16:12:08.221Z,95750.44
2019-04-04T16:14:37.622Z,95774.41
2019-04-04T16:17:08.076Z,95770.21
2019-04-04T16:19:40.461Z,95777.22
2019-04-04T16:22:09.857Z,95785.58
2019-04-04T16:24:40.225Z,95797.22
2019-04-04T16:27:11.085Z,95799.08
2019-04-04T16:29:44.278Z,95805.08
2019-04-04T16:32:13.996Z,95817.73
2019-04-04T16:34:43.426Z,95827.46
2019-04-04T16:37:12.825Z,95825.47
2019-04-04T16:39:43.318Z,95827.17
2019-04-04T16:42:13.691Z,95825.65
2019-04-04T16:44:44.094Z,95828.52
2019-04-04T16:47:13.605Z,95845.68
2019-04-04T16:49:44.173Z,95849.22
2019-04-04T16:52:13.580Z,95851.58
2019-04-04T16:54:44.018Z,95863.06
2019-04-04T16:57:14.576Z,95867.85
2019-04-04T16:59:44.080Z,95870.98
2019-04-04T17:02:13.537Z,95869.41
2019-04-04T17:04:44.002Z,95877.52
2019-04-04T17:07:13.359Z,95885.84
2019-04-04T17:09:43.766Z,95892.33
2019-04-04T17:12:16.152Z,95895.09
2019-04-04T17:14:46.484Z,95906.53
2019-04-04T17:17:16.968Z,95918.56
2019-04-04T17:19:49.355Z,95923.70
2019-04-04T17:22:21.234Z,95928.84
2019-04-04T17:24:50.645Z,95942.45
2019-04-04T17:27:20.161Z,95957.45
2019-04-04T17:29:48.753Z,95959.63
2019-04-04T17:32:17.259Z,95959.42
2019-04-04T17:34:47.751Z,95970.08
2019-04-04T17:37:18.138Z,95974.23
2019-04-04T17:39:47.937Z,95978.77
2019-04-04T17:42:28.646Z,95988.80
2019-04-04T17:44:49.521Z,95998.87
2019-04-04T17:47:22.877Z,95999.48
2019-04-04T17:49:53.652Z,96004.17
2019-04-04T17:52:24.370Z,96021.94
2019-04-04T17:54:53.726Z,96033.77
2019-04-04T17:57:24.813Z,96040.69
2019-04-04T17:59:54.285Z,96043.44
2019-04-04T18:02:23.156Z,96054.09
2019-04-04T18:04:54.880Z,96053.70
2019-04-04T18:07:24.252Z,96068.70
2019-04-04T18:09:53.657Z,96078.17
2019-04-04T18:12:25.388Z,96081.53
2019-04-04T18:14:56.711Z,96091.59
2019-04-04T18:17:29.310Z,96095.91
2019-04-04T18:19:58.146Z,96100.84
2019-04-04T18:22:26.986Z,96103.02
2019-04-04T18:24:57.498Z,96102.80
2019-04-04T18:27:31.141Z,96105.73
2019-04-04T18:30:00.562Z,96107.09
2019-04-04T18:32:30.929Z,96105.71
2019-04-04T18:35:00.293Z,96118.91
2019-04-04T18:37:30.093Z,96131.11
2019-04-04T18:40:02.071Z,96127.78
2019-04-04T18:42:31.531Z,96130.27
2019-04-04T18:45:01.895Z,96130.47
2019-04-04T18:47:31.267Z,96121.42
2019-04-04T18:50:00.661Z,96118.62
2019-04-04T18:52:33.110Z,96122.19
2019-04-04T18:55:03.511Z,96112.48
2019-04-04T18:57:34.038Z,96126.86
2019-04-04T19:00:03.531Z,96143.19
2019-04-04T19:02:32.952Z,96150.63
2019-04-04T19:05:02.355Z,96146.88
2019-04-04T19:07:39.173Z,96146.80
2019-04-04T19:10:04.083Z,96153.75
2019-04-04T19:12:34.473Z,96155.66
2019-04-04T19:15:07.589Z,96160.77
2019-04-04T19:17:36.339Z,96179.66
2019-04-04T19:20:12.854Z,96194.32
2019-04-04T19:22:42.312Z,96206.94
2019-04-04T19:25:13.920Z,96204.65
2019-04-04T19:27:44.369Z,96216.97
2019-04-04T19:30:13.458Z,96232.41
2019-04-04T19:32:47.017Z,96235.99
2019-04-04T19:35:18.222Z,96253.52
2019-04-04T19:37:59.475Z,96269.93
2019-04-04T19:40:21.730Z,96260.66
2019-04-04T19:42:51.157Z,96264.00
2019-04-04T19:45:21.839Z,96255.67
2019-04-04T19:47:51.274Z,96250.11
2019-04-04T19:50:20.833Z,96251.66
2019-04-04T19:52:50.270Z,96250.55
2019-04-04T19:55:19.656Z,96255.21
2019-04-04T19:57:49.012Z,96246.33
2019-04-04T20:00:20.020Z,96232.30
2019-04-04T20:02:49.436Z,96235.61
2019-04-04T20:05:21.104Z,96247.12
2019-04-04T20:07:51.539Z,96254.62
2019-04-04T20:10:21.930Z,96252.96
2019-04-04T20:12:51.514Z,96259.91
2019-04-04T20:15:21.844Z,96267.22
2019-04-04T20:17:54.206Z,96265.97
2019-04-04T20:20:24.720Z,96271.03
2019-04-04T20:22:55.131Z,96284.48
2019-04-04T20:25:25.537Z,96286.08
2019-04-04T20:27:55.940Z,96284.55
2019-04-04T20:30:39.553Z,96294.54
2019-04-04T20:33:12.150Z,96297.59
2019-04-04T20:35:42.610Z,96294.89
2019-04-04T20:38:11.382Z,96305.06
2019-04-04T20:40:40.747Z,96311.83
2019-04-04T20:43:10.171Z,96311.83
2019-04-04T20:45:40.529Z,96321.13
2019-04-04T20:48:11.505Z,96320.52
2019-04-04T20:50:40.976Z,96316.73
2019-04-04T20:53:12.731Z,96319.02
2019-04-04T20:55:42.218Z,96330.42
2019-04-04T20:58:11.604Z,96328.54
2019-04-04T21:00:42.192Z,96329.00
2019-04-04T21:03:11.543Z,96323.23
2019-04-04T21:05:43.509Z,96326.98
2019-04-04T21:08:13.840Z,96321.55
2019-04-04T21:10:44.316Z,96322.16
2019-04-04T21:13:14.720Z,96324.34
2019-04-04T21:15:45.230Z,96326.14
2019-04-04T21:18:14.652Z,96339.44
2019-04-04T21:20:45.002Z,96332.71
2019-04-04T21:23:14.408Z,96333.48
2019-04-04T21:25:46.331Z,96341.74
2019-04-04T21:28:16.744Z,96352.22
2019-04-04T21:30:47.457Z,96361.34
2019-04-04T21:33:17.877Z,96376.27
2019-04-04T21:35:47.267Z,96382.39
2019-04-04T21:38:18.062Z,96396.05
2019-04-04T21:40:48.458Z,96399.00
2019-04-04T21:43:17.822Z,96399.42
2019-04-04T21:45:47.220Z,96395.20
2019-04-04T21:48:17.788Z,96383.44
2019-04-04T21:50:47.189Z,96379.77
2019-04-04T21:53:17.648Z,96382.33
2019-04-04T21:55:47.988Z,96384.19
2019-04-04T21:58:18.550Z,96383.44
2019-04-04T22:00:48.264Z,96396.56
2019-04-04T22:03:18.610Z,96408.95
2019-04-04T22:05:49.167Z,96407.40
2019-04-04T22:08:19.574Z,96411.47
2019-04-04T22:10:49.056Z,96420.02
2019-04-04T22:13:19.375Z,96416.89
2019-04-04T22:15:48.801Z,96412.34
2019-04-04T22:21:48.124Z,96401.38
2019-04-04T22:24:17.581Z,96407.91
2019-04-04T22:26:47.975Z,96401.74
2019-04-04T22:29:17.374Z,96404.25
2019-04-04T22:31:46.753Z,96402.69
2019-04-04T22:34:18.775Z,96397.20
2019-04-04T22:36:49.141Z,96403.88
2019-04-04T22:39:19.572Z,96408.06
2019-04-04T22:41:48.957Z,96399.12
2019-04-04T22:44:19.353Z,96393.83
2019-04-04T22:46:52.683Z,96390.17
2019-04-04T22:49:23.097Z,96396.67
2019-04-04T22:51:53.488Z,96396.00
2019-04-04T22:54:22.867Z,96401.18
2019-04-04T22:56:54.448Z,96400.08
2019-04-04T22:59:24.983Z,96404.20
2019-04-04T23:01:55.962Z,96404.78
2019-04-04T23:04:25.436Z,96397.75
2019-04-04T23:06:54.895Z,96406.68
2019-04-04T23:09:24.300Z,96410.86
2019-04-04T23:11:54.648Z,96413.09
2019-04-04T23:14:25.037Z,96405.96
2019-04-04T23:16:55.583Z,96404.83
2019-04-04T23:19:25.969Z,96409.08
2019-04-04T23:21:56.342Z,96407.20
2019-04-04T23:24:26.708Z,96411.17
2019-04-04T23:26:59.171Z,96417.40
2019-04-04T23:29:29.532Z,96415.62
2019-04-04T23:31:58.949Z,96404.28
2019-04-04T23:34:30.639Z,96408.95
2019-04-04T23:37:00.076Z,96413.80
2019-04-04T23:39:34.021Z,96412.39
2019-04-04T23:42:04.530Z,96413.55
2019-04-04T23:44:34.947Z,96421.87
2019-04-04T23:47:05.481Z,96425.77
2019-04-04T23:49:35.759Z,96429.71
2019-04-04T23:52:06.254Z,96422.70
2019-04-04T23:54:37.909Z,96418.03
2019-04-04T23:57:08.318Z,96424.22
2019-04-04T23:59:38.914Z,96425.30
